sensor_id;sensor_type;location;lat;lon;timestamp;P1;durP1;ratioP1;P2;durP2;ratioP2
16624;SDS011;8426;48.496;9.098;2023-12-28T00:03:17;2.00;;;1.13;;
16624;SDS011;8426;48.496;9.098;2023-12-28T00:08:21;1.93;;;1.10;;
16624;SDS011;8426;48.496;9.098;2023-12-28T00:13:24;2.78;;;1.50;;
16624;SDS011;8426;48.496;9.098;2023-12-28T00:18:30;2.70;;;1.38;;
16624;SDS011;8426;48.496;9.098;2023-12-28T00:23:33;9.23;;;3.27;;
16624;SDS011;8426;48.496;9.098;2023-12-28T00:28:37;8.50;;;3.37;;
16624;SDS011;8426;48.496;9.098;2023-12-28T00:33:42;9.03;;;3.10;;
16624;SDS011;8426;48.496;9.098;2023-12-28T00:38:46;4.60;;;2.37;;
16624;SDS011;8426;48.496;9.098;2023-12-28T00:43:50;6.03;;;2.50;;
16624;SDS011;8426;48.496;9.098;2023-12-28T00:48:55;3.37;;;1.97;;
16624;SDS011;8426;48.496;9.098;2023-12-28T00:53:59;1.23;;;1.03;;
16624;SDS011;8426;48.496;9.098;2023-12-28T00:59:03;1.97;;;1.10;;
16624;SDS011;8426;48.496;9.098;2023-12-28T01:04:08;2.35;;;1.10;;
16624;SDS011;8426;48.496;9.098;2023-12-28T01:09:13;2.75;;;1.63;;
16624;SDS011;8426;48.496;9.098;2023-12-28T01:14:17;6.63;;;2.13;;
16624;SDS011;8426;48.496;9.098;2023-12-28T01:19:22;5.30;;;2.22;;
16624;SDS011;8426;48.496;9.098;2023-12-28T01:24:26;2.33;;;1.80;;
16624;SDS011;8426;48.496;9.098;2023-12-28T01:29:30;2.63;;;1.55;;
16624;SDS011;8426;48.496;9.098;2023-12-28T01:34:35;3.17;;;1.90;;
16624;SDS011;8426;48.496;9.098;2023-12-28T01:39:39;3.00;;;1.73;;
16624;SDS011;8426;48.496;9.098;2023-12-28T01:44:43;3.07;;;1.50;;
16624;SDS011;8426;48.496;9.098;2023-12-28T01:49:48;2.80;;;1.67;;
16624;SDS011;8426;48.496;9.098;2023-12-28T01:54:52;2.07;;;1.50;;
16624;SDS011;8426;48.496;9.098;2023-12-28T01:59:56;1.93;;;1.40;;
16624;SDS011;8426;48.496;9.098;2023-12-28T02:05:05;2.17;;;1.37;;
16624;SDS011;8426;48.496;9.098;2023-12-28T02:10:09;4.23;;;1.10;;
16624;SDS011;8426;48.496;9.098;2023-12-28T02:15:12;2.03;;;1.27;;
16624;SDS011;8426;48.496;9.098;2023-12-28T02:20:19;3.37;;;1.40;;
16624;SDS011;8426;48.496;9.098;2023-12-28T02:25:25;2.37;;;1.20;;
16624;SDS011;8426;48.496;9.098;2023-12-28T02:30:29;1.63;;;1.10;;
16624;SDS011;8426;48.496;9.098;2023-12-28T02:35:41;3.25;;;1.63;;
16624;SDS011;8426;48.496;9.098;2023-12-28T02:40:49;4.22;;;0.95;;
16624;SDS011;8426;48.496;9.098;2023-12-28T02:45:53;2.88;;;0.93;;
16624;SDS011;8426;48.496;9.098;2023-12-28T02:51:01;1.85;;;0.95;;
16624;SDS011;8426;48.496;9.098;2023-12-28T02:56:13;2.30;;;1.08;;
16624;SDS011;8426;48.496;9.098;2023-12-28T03:01:16;1.45;;;0.80;;
16624;SDS011;8426;48.496;9.098;2023-12-28T03:06:20;4.10;;;1.05;;
16624;SDS011;8426;48.496;9.098;2023-12-28T03:11:27;2.42;;;1.00;;
16624;SDS011;8426;48.496;9.098;2023-12-28T03:16:30;1.90;;;1.05;;
16624;SDS011;8426;48.496;9.098;2023-12-28T03:21:38;1.45;;;0.98;;
16624;SDS011;8426;48.496;9.098;2023-12-28T03:26:43;2.47;;;1.10;;
16624;SDS011;8426;48.496;9.098;2023-12-28T03:31:47;1.35;;;1.00;;
16624;SDS011;8426;48.496;9.098;2023-12-28T03:36:51;1.90;;;0.90;;
16624;SDS011;8426;48.496;9.098;2023-12-28T03:41:57;1.23;;;0.70;;
16624;SDS011;8426;48.496;9.098;2023-12-28T03:47:01;1.30;;;0.70;;
16624;SDS011;8426;48.496;9.098;2023-12-28T03:52:11;1.90;;;0.85;;
16624;SDS011;8426;48.496;9.098;2023-12-28T03:57:16;1.92;;;1.02;;
16624;SDS011;8426;48.496;9.098;2023-12-28T04:02:20;1.55;;;0.90;;
16624;SDS011;8426;48.496;9.098;2023-12-28T04:07:26;1.58;;;1.05;;
16624;SDS011;8426;48.496;9.098;2023-12-28T04:12:31;2.22;;;0.95;;
16624;SDS011;8426;48.496;9.098;2023-12-28T04:17:35;1.98;;;1.00;;
16624;SDS011;8426;48.496;9.098;2023-12-28T04:22:39;2.15;;;0.90;;
16624;SDS011;8426;48.496;9.098;2023-12-28T04:27:53;1.92;;;1.10;;
16624;SDS011;8426;48.496;9.098;2023-12-28T04:32:57;1.70;;;0.90;;
16624;SDS011;8426;48.496;9.098;2023-12-28T04:38:01;2.22;;;0.80;;
16624;SDS011;8426;48.496;9.098;2023-12-28T04:48:15;1.00;;;0.75;;
16624;SDS011;8426;48.496;9.098;2023-12-28T04:53:22;1.83;;;0.70;;
16624;SDS011;8426;48.496;9.098;2023-12-28T04:58:27;1.17;;;0.80;;
16624;SDS011;8426;48.496;9.098;2023-12-28T05:03:31;1.88;;;0.82;;
16624;SDS011;8426;48.496;9.098;2023-12-28T05:08:35;1.73;;;1.00;;
16624;SDS011;8426;48.496;9.098;2023-12-28T05:13:40;1.67;;;0.80;;
16624;SDS011;8426;48.496;9.098;2023-12-28T05:18:45;0.98;;;0.73;;
16624;SDS011;8426;48.496;9.098;2023-12-28T05:23:50;1.63;;;0.85;;
16624;SDS011;8426;48.496;9.098;2023-12-28T05:28:55;0.68;;;0.63;;
16624;SDS011;8426;48.496;9.098;2023-12-28T05:33:58;1.58;;;0.70;;
16624;SDS011;8426;48.496;9.098;2023-12-28T05:39:02;1.35;;;0.60;;
16624;SDS011;8426;48.496;9.098;2023-12-28T05:44:07;1.55;;;0.82;;
16624;SDS011;8426;48.496;9.098;2023-12-28T05:49:11;1.70;;;0.95;;
16624;SDS011;8426;48.496;9.098;2023-12-28T05:54:15;2.45;;;1.13;;
16624;SDS011;8426;48.496;9.098;2023-12-28T05:59:20;1.15;;;0.80;;
16624;SDS011;8426;48.496;9.098;2023-12-28T06:04:25;1.63;;;0.63;;
16624;SDS011;8426;48.496;9.098;2023-12-28T06:09:29;0.93;;;0.70;;
16624;SDS011;8426;48.496;9.098;2023-12-28T06:14:34;1.30;;;0.70;;
16624;SDS011;8426;48.496;9.098;2023-12-28T06:19:39;1.67;;;0.90;;
16624;SDS011;8426;48.496;9.098;2023-12-28T06:24:43;1.40;;;0.70;;
16624;SDS011;8426;48.496;9.098;2023-12-28T06:29:51;1.92;;;0.60;;
16624;SDS011;8426;48.496;9.098;2023-12-28T06:34:54;0.88;;;0.60;;
16624;SDS011;8426;48.496;9.098;2023-12-28T06:39:58;1.00;;;0.60;;
16624;SDS011;8426;48.496;9.098;2023-12-28T06:45:04;0.60;;;0.52;;
16624;SDS011;8426;48.496;9.098;2023-12-28T06:50:08;1.48;;;0.60;;
16624;SDS011;8426;48.496;9.098;2023-12-28T06:55:12;0.60;;;0.60;;
16624;SDS011;8426;48.496;9.098;2023-12-28T07:00:19;0.82;;;0.50;;
16624;SDS011;8426;48.496;9.098;2023-12-28T07:05:23;1.00;;;0.70;;
16624;SDS011;8426;48.496;9.098;2023-12-28T07:10:27;1.60;;;0.70;;
16624;SDS011;8426;48.496;9.098;2023-12-28T07:15:32;1.10;;;0.60;;
16624;SDS011;8426;48.496;9.098;2023-12-28T07:20:37;0.82;;;0.60;;
16624;SDS011;8426;48.496;9.098;2023-12-28T07:25:41;1.83;;;0.70;;
16624;SDS011;8426;48.496;9.098;2023-12-28T07:30:47;1.13;;;0.80;;
16624;SDS011;8426;48.496;9.098;2023-12-28T07:35:51;2.75;;;0.60;;
16624;SDS011;8426;48.496;9.098;2023-12-28T07:40:54;0.75;;;0.60;;
16624;SDS011;8426;48.496;9.098;2023-12-28T07:46:00;2.70;;;0.80;;
16624;SDS011;8426;48.496;9.098;2023-12-28T07:51:08;3.65;;;0.70;;
16624;SDS011;8426;48.496;9.098;2023-12-28T07:56:16;1.75;;;0.70;;
16624;SDS011;8426;48.496;9.098;2023-12-28T08:01:21;1.73;;;0.57;;
16624;SDS011;8426;48.496;9.098;2023-12-28T08:06:26;4.93;;;0.65;;
16624;SDS011;8426;48.496;9.098;2023-12-28T08:11:36;2.45;;;0.60;;
16624;SDS011;8426;48.496;9.098;2023-12-28T08:16:42;1.20;;;0.60;;
16624;SDS011;8426;48.496;9.098;2023-12-28T08:21:49;0.65;;;0.50;;
16624;SDS011;8426;48.496;9.098;2023-12-28T08:27:00;3.97;;;0.95;;
16624;SDS011;8426;48.496;9.098;2023-12-28T08:32:08;1.38;;;0.63;;
16624;SDS011;8426;48.496;9.098;2023-12-28T08:37:13;0.88;;;0.52;;
16624;SDS011;8426;48.496;9.098;2023-12-28T08:42:18;1.48;;;0.80;;
16624;SDS011;8426;48.496;9.098;2023-12-28T08:47:24;1.15;;;0.52;;
16624;SDS011;8426;48.496;9.098;2023-12-28T08:52:28;3.00;;;0.70;;
16624;SDS011;8426;48.496;9.098;2023-12-28T08:57:32;0.80;;;0.70;;
16624;SDS011;8426;48.496;9.098;2023-12-28T09:02:46;1.15;;;0.60;;
16624;SDS011;8426;48.496;9.098;2023-12-28T09:07:51;0.82;;;0.60;;
16624;SDS011;8426;48.496;9.098;2023-12-28T09:12:54;1.42;;;0.82;;
16624;SDS011;8426;48.496;9.098;2023-12-28T09:18:00;1.92;;;0.88;;
16624;SDS011;8426;48.496;9.098;2023-12-28T09:23:05;2.63;;;0.98;;
16624;SDS011;8426;48.496;9.098;2023-12-28T09:28:12;1.10;;;0.77;;
16624;SDS011;8426;48.496;9.098;2023-12-28T09:33:17;1.90;;;0.90;;
16624;SDS011;8426;48.496;9.098;2023-12-28T09:38:21;2.55;;;1.20;;
16624;SDS011;8426;48.496;9.098;2023-12-28T09:43:28;2.67;;;1.10;;
16624;SDS011;8426;48.496;9.098;2023-12-28T09:48:40;1.90;;;1.02;;
16624;SDS011;8426;48.496;9.098;2023-12-28T09:53:44;1.42;;;0.85;;
16624;SDS011;8426;48.496;9.098;2023-12-28T09:58:48;1.95;;;1.05;;
16624;SDS011;8426;48.496;9.098;2023-12-28T10:03:55;3.95;;;1.13;;
16624;SDS011;8426;48.496;9.098;2023-12-28T10:09:01;1.00;;;0.70;;
16624;SDS011;8426;48.496;9.098;2023-12-28T10:14:05;1.35;;;0.80;;
16624;SDS011;8426;48.496;9.098;2023-12-28T10:19:11;2.15;;;0.85;;
16624;SDS011;8426;48.496;9.098;2023-12-28T10:24:14;0.95;;;0.70;;
16624;SDS011;8426;48.496;9.098;2023-12-28T10:29:18;2.97;;;1.02;;
16624;SDS011;8426;48.496;9.098;2023-12-28T10:34:26;2.83;;;1.02;;
16624;SDS011;8426;48.496;9.098;2023-12-28T10:39:30;2.58;;;0.63;;
16624;SDS011;8426;48.496;9.098;2023-12-28T10:44:37;1.27;;;0.80;;
16624;SDS011;8426;48.496;9.098;2023-12-28T10:49:48;0.75;;;0.55;;
16624;SDS011;8426;48.496;9.098;2023-12-28T10:54:57;1.38;;;0.68;;
16624;SDS011;8426;48.496;9.098;2023-12-28T11:00:13;1.20;;;0.65;;
16624;SDS011;8426;48.496;9.098;2023-12-28T11:05:21;3.38;;;0.60;;
16624;SDS011;8426;48.496;9.098;2023-12-28T11:10:26;1.10;;;0.80;;
16624;SDS011;8426;48.496;9.098;2023-12-28T11:15:32;1.02;;;0.70;;
16624;SDS011;8426;48.496;9.098;2023-12-28T11:20:38;2.78;;;0.73;;
16624;SDS011;8426;48.496;9.098;2023-12-28T11:25:42;1.35;;;0.52;;
16624;SDS011;8426;48.496;9.098;2023-12-28T11:30:47;1.73;;;0.80;;
16624;SDS011;8426;48.496;9.098;2023-12-28T11:35:53;4.88;;;0.70;;
16624;SDS011;8426;48.496;9.098;2023-12-28T11:40:56;1.02;;;0.60;;
16624;SDS011;8426;48.496;9.098;2023-12-28T11:46:06;1.95;;;0.60;;
16624;SDS011;8426;48.496;9.098;2023-12-28T11:51:12;1.33;;;0.65;;
16624;SDS011;8426;48.496;9.098;2023-12-28T11:56:22;2.35;;;0.93;;
16624;SDS011;8426;48.496;9.098;2023-12-28T12:01:32;1.00;;;0.60;;
16624;SDS011;8426;48.496;9.098;2023-12-28T12:06:38;1.63;;;0.60;;
16624;SDS011;8426;48.496;9.098;2023-12-28T12:11:45;2.63;;;1.00;;
16624;SDS011;8426;48.496;9.098;2023-12-28T12:16:48;1.48;;;0.93;;
16624;SDS011;8426;48.496;9.098;2023-12-28T12:21:56;1.90;;;0.77;;
16624;SDS011;8426;48.496;9.098;2023-12-28T12:27:00;2.47;;;0.88;;
16624;SDS011;8426;48.496;9.098;2023-12-28T12:32:06;1.77;;;1.15;;
16624;SDS011;8426;48.496;9.098;2023-12-28T12:37:11;2.17;;;1.20;;
16624;SDS011;8426;48.496;9.098;2023-12-28T12:42:16;3.13;;;1.27;;
16624;SDS011;8426;48.496;9.098;2023-12-28T12:47:20;1.15;;;0.90;;
16624;SDS011;8426;48.496;9.098;2023-12-28T12:52:25;1.73;;;0.90;;
16624;SDS011;8426;48.496;9.098;2023-12-28T12:57:30;3.15;;;1.00;;
16624;SDS011;8426;48.496;9.098;2023-12-28T13:02:34;2.80;;;0.80;;
16624;SDS011;8426;48.496;9.098;2023-12-28T13:07:40;3.35;;;0.75;;
16624;SDS011;8426;48.496;9.098;2023-12-28T13:12:44;1.50;;;0.75;;
16624;SDS011;8426;48.496;9.098;2023-12-28T13:17:48;0.75;;;0.60;;
16624;SDS011;8426;48.496;9.098;2023-12-28T13:22:54;2.03;;;1.20;;
16624;SDS011;8426;48.496;9.098;2023-12-28T13:28:00;1.95;;;1.02;;
16624;SDS011;8426;48.496;9.098;2023-12-28T13:33:04;3.05;;;1.13;;
16624;SDS011;8426;48.496;9.098;2023-12-28T13:38:09;3.53;;;1.00;;
16624;SDS011;8426;48.496;9.098;2023-12-28T13:43:13;5.07;;;2.40;;
16624;SDS011;8426;48.496;9.098;2023-12-28T13:48:17;3.22;;;1.45;;
16624;SDS011;8426;48.496;9.098;2023-12-28T13:53:22;2.85;;;1.30;;
16624;SDS011;8426;48.496;9.098;2023-12-28T13:58:26;2.40;;;1.65;;
16624;SDS011;8426;48.496;9.098;2023-12-28T14:03:30;5.18;;;1.80;;
16624;SDS011;8426;48.496;9.098;2023-12-28T14:08:36;4.32;;;1.40;;
16624;SDS011;8426;48.496;9.098;2023-12-28T14:13:39;3.28;;;1.45;;
16624;SDS011;8426;48.496;9.098;2023-12-28T14:18:43;9.75;;;1.63;;
16624;SDS011;8426;48.496;9.098;2023-12-28T14:23:48;3.60;;;1.23;;
16624;SDS011;8426;48.496;9.098;2023-12-28T14:28:53;3.25;;;1.48;;
16624;SDS011;8426;48.496;9.098;2023-12-28T14:33:57;3.67;;;1.50;;
16624;SDS011;8426;48.496;9.098;2023-12-28T14:39:05;3.92;;;1.48;;
16624;SDS011;8426;48.496;9.098;2023-12-28T14:44:10;3.40;;;1.23;;
16624;SDS011;8426;48.496;9.098;2023-12-28T14:49:14;4.60;;;1.35;;
16624;SDS011;8426;48.496;9.098;2023-12-28T14:54:20;2.42;;;1.40;;
16624;SDS011;8426;48.496;9.098;2023-12-28T14:59:24;1.52;;;1.10;;
16624;SDS011;8426;48.496;9.098;2023-12-28T15:04:28;2.05;;;1.10;;
16624;SDS011;8426;48.496;9.098;2023-12-28T15:09:34;3.13;;;1.35;;
16624;SDS011;8426;48.496;9.098;2023-12-28T15:14:37;2.70;;;1.20;;
16624;SDS011;8426;48.496;9.098;2023-12-28T15:19:42;3.47;;;1.35;;
16624;SDS011;8426;48.496;9.098;2023-12-28T15:24:48;3.67;;;1.30;;
16624;SDS011;8426;48.496;9.098;2023-12-28T15:29:52;3.53;;;1.30;;
16624;SDS011;8426;48.496;9.098;2023-12-28T15:34:56;5.10;;;1.45;;
16624;SDS011;8426;48.496;9.098;2023-12-28T15:40:05;2.55;;;1.25;;
16624;SDS011;8426;48.496;9.098;2023-12-28T15:45:10;1.98;;;1.33;;
16624;SDS011;8426;48.496;9.098;2023-12-28T15:50:14;5.32;;;0.90;;
16624;SDS011;8426;48.496;9.098;2023-12-28T15:55:19;3.72;;;0.85;;
16624;SDS011;8426;48.496;9.098;2023-12-28T16:00:26;1.30;;;0.82;;
16624;SDS011;8426;48.496;9.098;2023-12-28T16:05:30;1.88;;;0.90;;
16624;SDS011;8426;48.496;9.098;2023-12-28T16:10:37;1.77;;;0.85;;
16624;SDS011;8426;48.496;9.098;2023-12-28T16:15:42;3.17;;;0.75;;
16624;SDS011;8426;48.496;9.098;2023-12-28T16:20:47;1.00;;;0.65;;
16624;SDS011;8426;48.496;9.098;2023-12-28T16:25:52;1.20;;;0.82;;
16624;SDS011;8426;48.496;9.098;2023-12-28T16:30:56;3.55;;;0.80;;
16624;SDS011;8426;48.496;9.098;2023-12-28T16:36:00;1.90;;;1.08;;
16624;SDS011;8426;48.496;9.098;2023-12-28T16:41:06;1.85;;;1.00;;
16624;SDS011;8426;48.496;9.098;2023-12-28T16:46:10;1.00;;;0.85;;
16624;SDS011;8426;48.496;9.098;2023-12-28T16:51:14;2.47;;;1.10;;
16624;SDS011;8426;48.496;9.098;2023-12-28T16:56:21;1.13;;;0.82;;
16624;SDS011;8426;48.496;9.098;2023-12-28T17:01:25;1.58;;;0.90;;
16624;SDS011;8426;48.496;9.098;2023-12-28T17:06:30;3.92;;;1.08;;
16624;SDS011;8426;48.496;9.098;2023-12-28T17:11:38;1.42;;;1.05;;
16624;SDS011;8426;48.496;9.098;2023-12-28T17:16:46;3.22;;;0.90;;
16624;SDS011;8426;48.496;9.098;2023-12-28T17:21:51;1.75;;;1.10;;
16624;SDS011;8426;48.496;9.098;2023-12-28T17:26:58;2.45;;;1.13;;
16624;SDS011;8426;48.496;9.098;2023-12-28T17:32:08;2.63;;;1.10;;
16624;SDS011;8426;48.496;9.098;2023-12-28T17:37:15;2.67;;;1.23;;
16624;SDS011;8426;48.496;9.098;2023-12-28T17:42:22;3.03;;;1.08;;
16624;SDS011;8426;48.496;9.098;2023-12-28T17:47:36;1.63;;;0.90;;
16624;SDS011;8426;48.496;9.098;2023-12-28T17:52:47;1.67;;;1.23;;
16624;SDS011;8426;48.496;9.098;2023-12-28T17:57:53;2.33;;;1.20;;
16624;SDS011;8426;48.496;9.098;2023-12-28T18:02:57;1.20;;;0.90;;
16624;SDS011;8426;48.496;9.098;2023-12-28T18:08:01;3.25;;;1.38;;
16624;SDS011;8426;48.496;9.098;2023-12-28T18:13:06;1.98;;;1.17;;
16624;SDS011;8426;48.496;9.098;2023-12-28T18:18:15;2.30;;;1.40;;
16624;SDS011;8426;48.496;9.098;2023-12-28T18:23:20;4.07;;;1.30;;
16624;SDS011;8426;48.496;9.098;2023-12-28T18:28:25;2.55;;;1.13;;
16624;SDS011;8426;48.496;9.098;2023-12-28T18:33:29;1.58;;;1.08;;
16624;SDS011;8426;48.496;9.098;2023-12-28T18:38:33;3.30;;;1.50;;
16624;SDS011;8426;48.496;9.098;2023-12-28T18:43:38;2.13;;;1.25;;
16624;SDS011;8426;48.496;9.098;2023-12-28T18:48:42;2.47;;;1.60;;
16624;SDS011;8426;48.496;9.098;2023-12-28T18:53:47;2.75;;;1.15;;
16624;SDS011;8426;48.496;9.098;2023-12-28T18:58:53;2.30;;;1.30;;
16624;SDS011;8426;48.496;9.098;2023-12-28T19:03:57;3.15;;;1.52;;
16624;SDS011;8426;48.496;9.098;2023-12-28T19:09:02;2.28;;;1.63;;
16624;SDS011;8426;48.496;9.098;2023-12-28T19:14:08;2.53;;;1.30;;
16624;SDS011;8426;48.496;9.098;2023-12-28T19:19:12;2.63;;;1.45;;
16624;SDS011;8426;48.496;9.098;2023-12-28T19:24:16;1.90;;;1.20;;
16624;SDS011;8426;48.496;9.098;2023-12-28T19:29:21;2.33;;;1.20;;
16624;SDS011;8426;48.496;9.098;2023-12-28T19:34:24;3.53;;;1.20;;
16624;SDS011;8426;48.496;9.098;2023-12-28T19:39:28;2.63;;;1.38;;
16624;SDS011;8426;48.496;9.098;2023-12-28T19:44:34;1.80;;;1.08;;
16624;SDS011;8426;48.496;9.098;2023-12-28T19:49:40;2.80;;;1.13;;
16624;SDS011;8426;48.496;9.098;2023-12-28T19:54:44;2.05;;;1.00;;
16624;SDS011;8426;48.496;9.098;2023-12-28T19:59:49;3.60;;;1.35;;
16624;SDS011;8426;48.496;9.098;2023-12-28T20:04:54;1.38;;;1.00;;
16624;SDS011;8426;48.496;9.098;2023-12-28T20:09:58;1.73;;;0.93;;
16624;SDS011;8426;48.496;9.098;2023-12-28T20:15:05;1.65;;;1.10;;
16624;SDS011;8426;48.496;9.098;2023-12-28T20:20:12;1.00;;;0.80;;
16624;SDS011;8426;48.496;9.098;2023-12-28T20:25:17;1.92;;;1.00;;
16624;SDS011;8426;48.496;9.098;2023-12-28T20:30:22;1.73;;;1.10;;
16624;SDS011;8426;48.496;9.098;2023-12-28T20:35:26;1.73;;;1.23;;
16624;SDS011;8426;48.496;9.098;2023-12-28T20:40:29;1.98;;;1.00;;
16624;SDS011;8426;48.496;9.098;2023-12-28T20:45:37;1.85;;;1.20;;
16624;SDS011;8426;48.496;9.098;2023-12-28T20:50:40;2.83;;;1.50;;
16624;SDS011;8426;48.496;9.098;2023-12-28T20:55:44;1.30;;;1.00;;
16624;SDS011;8426;48.496;9.098;2023-12-28T21:00:49;2.35;;;1.10;;
16624;SDS011;8426;48.496;9.098;2023-12-28T21:05:53;1.55;;;0.82;;
16624;SDS011;8426;48.496;9.098;2023-12-28T21:10:57;2.05;;;0.80;;
16624;SDS011;8426;48.496;9.098;2023-12-28T21:16:02;2.00;;;1.20;;
16624;SDS011;8426;48.496;9.098;2023-12-28T21:21:07;1.90;;;0.90;;
16624;SDS011;8426;48.496;9.098;2023-12-28T21:26:13;1.52;;;0.93;;
16624;SDS011;8426;48.496;9.098;2023-12-28T21:31:18;2.15;;;0.93;;
16624;SDS011;8426;48.496;9.098;2023-12-28T21:36:22;1.48;;;0.80;;
16624;SDS011;8426;48.496;9.098;2023-12-28T21:41:26;1.75;;;0.80;;
16624;SDS011;8426;48.496;9.098;2023-12-28T21:46:31;1.35;;;0.70;;
16624;SDS011;8426;48.496;9.098;2023-12-28T21:51:35;1.00;;;0.80;;
16624;SDS011;8426;48.496;9.098;2023-12-28T21:56:39;1.20;;;0.75;;
16624;SDS011;8426;48.496;9.098;2023-12-28T22:01:44;1.08;;;0.70;;
16624;SDS011;8426;48.496;9.098;2023-12-28T22:06:48;1.08;;;0.90;;
16624;SDS011;8426;48.496;9.098;2023-12-28T22:11:54;1.17;;;1.00;;
16624;SDS011;8426;48.496;9.098;2023-12-28T22:16:59;1.17;;;0.80;;
16624;SDS011;8426;48.496;9.098;2023-12-28T22:22:02;1.25;;;0.80;;
16624;SDS011;8426;48.496;9.098;2023-12-28T22:27:08;4.75;;;0.93;;
16624;SDS011;8426;48.496;9.098;2023-12-28T22:32:13;1.88;;;0.98;;
16624;SDS011;8426;48.496;9.098;2023-12-28T22:37:17;0.90;;;0.77;;
16624;SDS011;8426;48.496;9.098;2023-12-28T22:42:21;1.63;;;0.80;;
16624;SDS011;8426;48.496;9.098;2023-12-28T22:47:29;1.60;;;0.80;;
16624;SDS011;8426;48.496;9.098;2023-12-28T22:52:32;2.70;;;0.85;;
16624;SDS011;8426;48.496;9.098;2023-12-28T22:57:38;2.33;;;0.90;;
16624;SDS011;8426;48.496;9.098;2023-12-28T23:02:43;1.02;;;0.90;;
16624;SDS011;8426;48.496;9.098;2023-12-28T23:07:47;2.38;;;1.30;;
16624;SDS011;8426;48.496;9.098;2023-12-28T23:12:51;1.67;;;0.90;;
16624;SDS011;8426;48.496;9.098;2023-12-28T23:17:56;1.10;;;0.90;;
16624;SDS011;8426;48.496;9.098;2023-12-28T23:23:01;1.90;;;0.90;;
16624;SDS011;8426;48.496;9.098;2023-12-28T23:28:05;1.77;;;1.00;;
16624;SDS011;8426;48.496;9.098;2023-12-28T23:33:11;1.00;;;0.70;;
16624;SDS011;8426;48.496;9.098;2023-12-28T23:38:16;3.83;;;0.90;;
16624;SDS011;8426;48.496;9.098;2023-12-28T23:43:20;1.98;;;1.10;;
16624;SDS011;8426;48.496;9.098;2023-12-28T23:48:24;1.35;;;0.90;;
16624;SDS011;8426;48.496;9.098;2023-12-28T23:53:28;1.30;;;0.88;;
16624;SDS011;8426;48.496;9.098;2023-12-28T23:58:32;2.42;;;1.05;;
